Time;durP1;ratioP1;P1;durP2;ratioP2;P2;SDS_P1;SDS_P2;PMS_P1;PMS_P2;Temp;Humidity;BMP_temperature;BMP_pressure;BME280_temperature;BME280_humidity;BME280_pressure;Samples;Min_cycle;Max_cycle;Signal;HPM_P1;HPM_P2
2023/04/18 00:01:09;;;;;;;15.93;11.97;;;;;;;8.02;100.00;98599.38;5072302;28;20714;-78
2023/04/18 00:03:36;;;;;;;17.23;11.23;;;;;;;7.98;100.00;98604.88;5073518;28;20677;-78
2023/04/18 00:06:03;;;;;;;14.90;11.43;;;;;;;7.98;100.00;98594.34;5072744;28;20250;-78
2023/04/18 00:08:30;;;;;;;18.73;12.27;;;;;;;7.96;100.00;98598.84;5073447;28;20211;-78
2023/04/18 00:10:58;;;;;;;18.07;12.37;;;;;;;8.04;100.00;98588.78;5072494;28;20215;-78
2023/04/18 00:13:27;;;;;;;20.40;11.87;;;;;;;7.94;100.00;98582.28;5073018;28;20204;-77
2023/04/18 00:15:53;;;;;;;16.53;11.50;;;;;;;7.91;100.00;98582.44;5072796;28;20238;-78
2023/04/18 00:18:20;;;;;;;16.50;12.57;;;;;;;7.81;100.00;98582.06;5072909;28;20219;-78
2023/04/18 00:20:47;;;;;;;17.10;11.23;;;;;;;7.86;100.00;98582.69;5071887;28;20592;-78
2023/04/18 00:23:13;;;;;;;17.27;12.73;;;;;;;7.87;100.00;98580.88;5072969;28;20215;-78
2023/04/18 00:25:40;;;;;;;17.70;12.43;;;;;;;7.88;100.00;98582.59;5072460;28;20717;-78
2023/04/18 00:28:08;;;;;;;16.87;12.30;;;;;;;7.91;100.00;98583.28;5072659;28;20656;-78
2023/04/18 00:30:35;;;;;;;19.40;12.67;;;;;;;7.89;100.00;98573.78;5072006;28;20214;-78
2023/04/18 00:33:03;;;;;;;15.27;12.03;;;;;;;7.98;100.00;98575.94;5072529;28;20677;-78
2023/04/18 00:35:30;;;;;;;17.20;12.83;;;;;;;7.96;100.00;98580.44;5072333;28;20706;-78
2023/04/18 00:37:57;;;;;;;15.93;11.83;;;;;;;8.02;100.00;98580.13;5072808;28;20256;-78
2023/04/18 00:40:23;;;;;;;15.93;11.67;;;;;;;7.99;100.00;98577.63;5072046;28;20234;-78
2023/04/18 00:42:50;;;;;;;15.60;12.07;;;;;;;7.99;100.00;98575.88;5072564;28;20204;-78
2023/04/18 00:45:18;;;;;;;17.20;11.50;;;;;;;7.97;100.00;98576.88;5072366;28;20678;-78
2023/04/18 00:47:44;;;;;;;18.77;12.53;;;;;;;8.03;100.00;98564.22;5072174;28;20211;-78
2023/04/18 00:50:12;;;;;;;18.10;12.27;;;;;;;8.09;100.00;98566.53;5071654;28;20210;-78
2023/04/18 00:52:39;;;;;;;14.93;11.20;;;;;;;8.07;100.00;98563.13;5072316;28;20212;-78
2023/04/18 00:55:07;;;;;;;15.23;11.90;;;;;;;8.16;100.00;98567.06;5072095;28;20239;-84
2023/04/18 00:57:34;;;;;;;16.00;12.13;;;;;;;8.16;100.00;98564.44;5071580;28;20215;-78
2023/04/18 01:00:03;;;;;;;16.87;12.23;;;;;;;8.15;100.00;98562.75;5070479;28;20317;-78
2023/04/18 01:02:31;;;;;;;16.27;12.00;;;;;;;8.17;100.00;98556.47;5071410;28;20212;-78
2023/04/18 01:04:58;;;;;;;17.23;11.97;;;;;;;8.21;100.00;98565.09;5072047;28;20252;-79
2023/04/18 01:07:25;;;;;;;15.40;11.03;;;;;;;8.14;100.00;98547.88;5071920;28;20224;-78
2023/04/18 01:09:53;;;;;;;18.47;11.80;;;;;;;8.11;100.00;98555.94;5070978;28;20673;-78
2023/04/18 01:12:19;;;;;;;15.13;11.60;;;;;;;8.12;100.00;98555.00;5071737;28;20238;-78
2023/04/18 01:14:46;;;;;;;19.70;11.83;;;;;;;8.17;100.00;98552.97;5071626;28;20211;-79
2023/04/18 01:17:12;;;;;;;16.17;11.77;;;;;;;8.16;100.00;98541.59;5072053;28;20229;-78
2023/04/18 01:19:40;;;;;;;15.97;11.27;;;;;;;8.12;100.00;98533.94;5071096;28;20207;-78
2023/04/18 01:22:07;;;;;;;15.43;11.10;;;;;;;8.14;100.00;98540.00;5071552;28;20218;-78
2023/04/18 01:24:35;;;;;;;17.17;12.30;;;;;;;8.10;100.00;98535.81;5071688;28;20215;-78
2023/04/18 01:27:02;;;;;;;15.33;11.73;;;;;;;8.09;100.00;98542.00;5071389;28;20243;-78
2023/04/18 01:29:28;;;;;;;18.40;12.23;;;;;;;8.02;100.00;98535.38;5070317;28;20218;-78
2023/04/18 01:31:55;;;;;;;16.60;11.77;;;;;;;8.05;100.00;98533.44;5071626;28;20230;-78
2023/04/18 01:34:21;;;;;;;16.97;11.37;;;;;;;8.04;100.00;98531.72;5071464;28;20329;-78
2023/04/18 01:36:48;;;;;;;14.43;11.23;;;;;;;7.97;100.00;98521.59;5071538;28;20231;-78
2023/04/18 01:39:17;;;;;;;15.57;11.53;;;;;;;7.95;100.00;98520.84;5070655;28;20217;-78
2023/04/18 01:41:44;;;;;;;17.87;12.23;;;;;;;7.97;100.00;98518.97;5071070;28;20232;-78
2023/04/18 01:44:11;;;;;;;15.37;11.03;;;;;;;8.01;100.00;98520.47;5071126;28;20204;-78
2023/04/18 01:46:38;;;;;;;16.50;11.13;;;;;;;7.98;100.00;98515.41;5071209;28;20611;-78
2023/04/18 01:49:06;;;;;;;22.87;11.97;;;;;;;7.97;100.00;98516.34;5070995;28;20756;-78
2023/04/18 01:51:33;;;;;;;15.17;11.33;;;;;;;7.98;100.00;98515.41;5071187;28;20579;-78
2023/04/18 01:53:59;;;;;;;16.93;11.57;;;;;;;7.94;100.00;98512.06;5071191;28;20215;-78
2023/04/18 01:56:26;;;;;;;17.07;10.80;;;;;;;7.89;100.00;98514.09;5070867;28;20228;-78
2023/04/18 01:58:53;;;;;;;15.77;11.40;;;;;;;7.89;100.00;98513.25;5071282;28;20211;-78
2023/04/18 02:01:20;;;;;;;14.53;11.17;;;;;;;7.87;100.00;98518.59;5070444;28;20227;-78
2023/04/18 02:03:46;;;;;;;14.70;10.93;;;;;;;7.82;100.00;98509.22;5070853;28;20218;-78
2023/04/18 02:06:13;;;;;;;16.83;11.47;;;;;;;7.75;100.00;98505.22;5070872;28;20722;-78
2023/04/18 02:08:39;;;;;;;15.97;11.03;;;;;;;7.72;100.00;98503.59;5070031;28;20295;-78
2023/04/18 02:11:06;;;;;;;16.43;10.87;;;;;;;7.70;100.00;98509.84;5070031;28;20214;-79
2023/04/18 02:13:33;;;;;;;14.73;10.47;;;;;;;7.70;100.00;98509.84;5070724;28;20203;-78
2023/04/18 02:16:01;;;;;;;15.67;11.20;;;;;;;7.71;100.00;98506.31;5070823;28;20223;-78
2023/04/18 02:18:27;;;;;;;13.93;10.90;;;;;;;7.67;100.00;98515.28;5070661;28;20218;-78
2023/04/18 02:20:54;;;;;;;16.77;11.17;;;;;;;7.62;100.00;98512.91;5070192;28;20228;-78
2023/04/18 02:23:20;;;;;;;14.77;10.53;;;;;;;7.54;100.00;98517.69;5070692;28;20256;-79
2023/04/18 02:25:47;;;;;;;19.07;11.50;;;;;;;7.55;100.00;98521.19;5086876;22;20240;-81
2023/04/18 02:28:13;;;;;;;15.63;10.50;;;;;;;7.57;100.00;98519.31;5091605;28;20230;-82
2023/04/18 02:30:40;;;;;;;15.37;11.07;;;;;;;7.61;100.00;98515.59;5090501;28;20213;-81
2023/04/18 02:33:07;;;;;;;16.33;10.43;;;;;;;7.61;100.00;98520.88;5091214;28;20215;-80
2023/04/18 02:35:34;;;;;;;14.30;10.30;;;;;;;7.52;100.00;98519.56;5091108;28;20225;-80
2023/04/18 02:38:00;;;;;;;14.97;10.47;;;;;;;7.50;100.00;98523.19;5091040;28;20276;-81
2023/04/18 02:40:27;;;;;;;15.13;11.17;;;;;;;7.44;100.00;98523.50;5090171;28;20241;-80
2023/04/18 02:42:53;;;;;;;14.33;10.43;;;;;;;7.43;100.00;98519.19;5091158;28;20207;-79
2023/04/18 02:45:20;;;;;;;14.40;11.20;;;;;;;7.43;100.00;98520.03;5091251;28;20213;-79
2023/04/18 02:47:46;;;;;;;15.03;10.73;;;;;;;7.42;100.00;98514.84;5091112;28;20230;-79
2023/04/18 02:50:14;;;;;;;14.57;10.43;;;;;;;7.43;100.00;98511.28;5090468;28;20214;-80
2023/04/18 02:52:41;;;;;;;14.17;10.07;;;;;;;7.41;100.00;98513.16;5101798;28;20205;-80
2023/04/18 02:55:08;;;;;;;13.27;9.97;;;;;;;7.39;100.00;98507.09;5114348;28;20222;-79
2023/04/18 02:57:35;;;;;;;15.07;10.07;;;;;;;7.36;100.00;98504.63;5115879;28;20218;-80
2023/04/18 03:00:01;;;;;;;13.63;9.97;;;;;;;7.43;100.00;98511.28;5111977;28;20203;-80
2023/04/18 03:02:28;;;;;;;16.23;11.17;;;;;;;7.38;100.00;98515.91;5090698;28;20231;-81
2023/04/18 03:04:55;;;;;;;13.53;10.23;;;;;;;7.37;100.00;98522.13;5091563;28;20683;-82
2023/04/18 03:07:23;;;;;;;14.57;9.97;;;;;;;7.28;100.00;98512.06;5090714;28;20629;-80
2023/04/18 03:09:49;;;;;;;14.37;10.20;;;;;;;7.33;100.00;98518.78;5090286;28;20206;-81
2023/04/18 03:12:16;;;;;;;14.80;11.13;;;;;;;7.36;100.00;98512.53;5091181;28;20248;-80
2023/04/18 03:14:43;;;;;;;14.27;11.30;;;;;;;7.33;100.00;98515.28;5090895;28;20209;-80
2023/04/18 03:17:09;;;;;;;14.97;9.93;;;;;;;7.34;100.00;98515.22;5090639;28;20234;-80
2023/04/18 03:19:36;;;;;;;13.50;10.90;;;;;;;7.38;100.00;98514.16;5091688;28;20214;-81
2023/04/18 03:22:02;;;;;;;12.87;9.97;;;;;;;7.33;100.00;98510.91;5094703;28;20234;-83
2023/04/18 03:24:30;;;;;;;17.13;10.70;;;;;;;7.38;100.00;98513.28;5094608;28;20207;-81
2023/04/18 03:26:58;;;;;;;16.00;10.17;;;;;;;7.30;100.00;98515.47;5094306;28;20256;-80
2023/04/18 03:29:25;;;;;;;14.13;10.63;;;;;;;7.26;100.00;98516.53;5093645;28;20207;-81
2023/04/18 03:31:51;;;;;;;16.60;10.77;;;;;;;7.27;100.00;98515.59;5094122;28;20210;-80
2023/04/18 03:34:18;;;;;;;14.63;10.57;;;;;;;7.20;100.00;98514.22;5094229;28;20232;-81
2023/04/18 03:36:44;;;;;;;15.90;10.67;;;;;;;7.19;100.00;98517.78;5094367;28;20234;-82
2023/04/18 03:39:11;;;;;;;15.57;11.37;;;;;;;7.16;100.00;98512.69;5093681;28;20268;-81
2023/04/18 03:41:39;;;;;;;14.90;11.27;;;;;;;7.14;100.00;98525.03;5094127;28;20321;-81
2023/04/18 03:44:05;;;;;;;16.23;11.23;;;;;;;7.08;100.00;98520.06;5094440;28;20210;-81
2023/04/18 03:46:32;;;;;;;15.57;11.30;;;;;;;7.14;100.00;98521.56;5094054;28;20317;-81
2023/04/18 03:48:58;;;;;;;14.77;10.63;;;;;;;7.11;100.00;98509.41;5093938;28;20207;-80
2023/04/18 03:51:25;;;;;;;18.50;12.13;;;;;;;7.13;100.00;98514.56;5093562;28;20209;-80
2023/04/18 03:53:51;;;;;;;16.73;11.53;;;;;;;7.12;100.00;98520.78;5094105;28;20229;-81
2023/04/18 03:56:18;;;;;;;16.00;11.87;;;;;;;7.07;100.00;98521.00;5093892;28;20230;-81
2023/04/18 03:58:46;;;;;;;14.73;11.50;;;;;;;7.11;100.00;98525.19;5093792;28;20680;-81
2023/04/18 04:01:12;;;;;;;16.00;11.40;;;;;;;6.98;100.00;98521.47;5093048;28;20241;-80
2023/04/18 04:03:39;;;;;;;17.90;12.60;;;;;;;6.92;100.00;98532.28;5093721;28;20214;-81
2023/04/18 04:06:06;;;;;;;18.07;12.10;;;;;;;6.94;100.00;98522.53;5093558;28;20242;-80
2023/04/18 04:08:33;;;;;;;16.50;12.60;;;;;;;6.93;100.00;98520.84;5093592;28;20239;-81
2023/04/18 04:11:00;;;;;;;16.70;12.23;;;;;;;6.90;100.00;98525.38;5093040;28;20230;-81
2023/04/18 04:13:26;;;;;;;16.93;11.77;;;;;;;6.85;100.00;98533.47;5094300;28;20264;-81
2023/04/18 04:15:54;;;;;;;17.83;12.17;;;;;;;6.89;100.00;98528.94;5093455;28;20226;-81
2023/04/18 04:18:24;;;;;;;16.67;12.30;;;;;;;6.88;100.00;98528.09;5093678;28;20206;-81
2023/04/18 04:20:50;;;;;;;15.33;11.60;;;;;;;6.90;100.00;98526.22;5092820;28;20245;-81
2023/04/18 04:23:17;;;;;;;13.87;10.63;;;;;;;6.86;100.00;98522.06;5093849;28;20211;-81
2023/04/18 04:25:45;;;;;;;17.10;12.00;;;;;;;6.91;100.00;98521.84;5093380;28;20288;-80
2023/04/18 04:28:12;;;;;;;16.90;12.50;;;;;;;6.91;100.00;98522.66;5093594;28;20210;-81
2023/04/18 04:30:40;;;;;;;15.63;12.03;;;;;;;6.89;100.00;98523.69;5091808;28;20641;-81
2023/04/18 04:33:08;;;;;;;19.23;12.43;;;;;;;6.93;100.00;98520.84;5093555;28;20215;-81
2023/04/18 04:35:35;;;;;;;18.07;13.00;;;;;;;6.90;100.00;98525.38;5093202;28;20677;-80
2023/04/18 04:38:02;;;;;;;18.57;12.07;;;;;;;6.89;100.00;98529.78;5093286;28;20215;-80
2023/04/18 04:40:28;;;;;;;17.57;12.33;;;;;;;7.02;100.00;98527.41;5092860;28;20206;-79
2023/04/18 04:42:54;;;;;;;15.87;12.00;;;;;;;6.95;100.00;98518.13;5092949;28;20242;-80
2023/04/18 04:45:22;;;;;;;16.83;12.97;;;;;;;6.92;100.00;98524.38;5092939;28;20208;-82
2023/04/18 04:47:48;;;;;;;16.23;10.83;;;;;;;6.91;100.00;98527.91;5093259;28;20598;-81
2023/04/18 04:50:19;;;;;;;16.97;11.30;;;;;;;6.95;100.00;98534.75;5092163;28;20673;-80
2023/04/18 04:52:45;;;;;;;17.77;12.30;;;;;;;6.94;100.00;98533.03;5092848;28;20285;-81
2023/04/18 04:55:12;;;;;;;17.10;12.67;;;;;;;6.96;100.00;98525.91;5092656;28;20210;-81
2023/04/18 04:57:38;;;;;;;17.17;12.37;;;;;;;6.97;100.00;98525.00;5092436;28;20769;-80
2023/04/18 05:00:07;;;;;;;17.10;12.43;;;;;;;6.98;100.00;98537.22;5091938;28;20218;-81
2023/04/18 05:02:34;;;;;;;16.93;11.93;;;;;;;6.95;100.00;98529.47;5092958;28;20236;-81
2023/04/18 05:05:00;;;;;;;18.67;11.80;;;;;;;6.91;100.00;98533.16;5092686;28;20214;-81
2023/04/18 05:07:28;;;;;;;15.77;11.93;;;;;;;6.92;100.00;98529.66;5092500;28;20704;-80
2023/04/18 05:09:55;;;;;;;17.33;12.60;;;;;;;6.92;100.00;98534.03;5091858;28;20589;-81
2023/04/18 05:12:21;;;;;;;18.27;12.23;;;;;;;6.93;100.00;98539.22;5092328;28;20211;-81
2023/04/18 05:14:48;;;;;;;17.03;12.23;;;;;;;6.96;100.00;98539.06;5092428;28;20220;-81
2023/04/18 05:17:14;;;;;;;17.00;12.37;;;;;;;7.02;100.00;98541.41;5092383;28;20309;-81
2023/04/18 05:19:42;;;;;;;15.47;11.37;;;;;;;7.03;100.00;98540.47;5091694;28;20213;-81
2023/04/18 05:22:09;;;;;;;22.80;12.27;;;;;;;6.99;100.00;98546.81;5092617;28;20241;-81
2023/04/18 05:24:37;;;;;;;17.80;12.77;;;;;;;7.04;100.00;98550.06;5092074;28;20692;-81
2023/04/18 05:27:04;;;;;;;19.20;12.40;;;;;;;7.04;100.00;98536.94;5092044;28;20241;-81
2023/04/18 05:29:31;;;;;;;15.03;11.93;;;;;;;7.00;100.00;98543.25;5091598;28;20207;-80
2023/04/18 05:31:57;;;;;;;18.07;12.93;;;;;;;7.13;100.00;98549.63;5092250;28;20225;-81
2023/04/18 05:34:24;;;;;;;15.50;11.73;;;;;;;7.14;100.00;98547.84;5092131;28;20217;-81
2023/04/18 05:36:51;;;;;;;16.83;12.30;;;;;;;7.10;100.00;98546.28;5092317;28;20231;-80
2023/04/18 05:39:18;;;;;;;16.77;11.50;;;;;;;7.21;100.00;98546.63;5091631;28;20215;-82
2023/04/18 05:41:45;;;;;;;16.83;12.03;;;;;;;7.15;100.00;98542.50;5091539;28;20231;-81
2023/04/18 05:44:12;;;;;;;19.80;12.67;;;;;;;7.22;100.00;98552.63;5091970;28;20207;-80
2023/04/18 05:46:39;;;;;;;18.33;11.60;;;;;;;7.24;100.00;98552.56;5091843;28;20226;-81
2023/04/18 05:49:05;;;;;;;15.37;11.53;;;;;;;7.23;100.00;98550.88;5091801;28;20634;-81
2023/04/18 05:51:32;;;;;;;19.77;12.47;;;;;;;7.22;100.00;98556.19;5091729;28;20206;-82
2023/04/18 05:53:58;;;;;;;17.27;11.10;;;;;;;7.26;100.00;98561.22;5091807;28;20208;-81
2023/04/18 05:56:25;;;;;;;17.67;12.00;;;;;;;7.30;100.00;98558.34;5092346;28;20227;-81
2023/04/18 05:58:53;;;;;;;15.67;11.30;;;;;;;7.36;100.00;98557.22;5091747;28;20210;-81
2023/04/18 06:01:20;;;;;;;18.73;12.07;;;;;;;7.39;100.00;98557.06;5091176;28;20641;-81
2023/04/18 06:03:46;;;;;;;17.23;11.50;;;;;;;7.36;100.00;98562.47;5091280;28;20263;-81
2023/04/18 06:06:13;;;;;;;19.57;12.73;;;;;;;7.42;100.00;98562.19;5091255;28;20227;-75
2023/04/18 06:08:40;;;;;;;15.80;11.37;;;;;;;7.46;100.00;98556.69;5091225;28;20210;-79
2023/04/18 06:11:07;;;;;;;16.77;11.80;;;;;;;7.46;100.00;98561.94;5090881;28;20206;-80
2023/04/18 06:13:34;;;;;;;19.23;11.13;;;;;;;7.51;100.00;98559.06;5091414;28;20304;-81
2023/04/18 06:16:02;;;;;;;14.70;11.27;;;;;;;7.55;100.00;98569.38;5101119;28;20219;-80
2023/04/18 06:18:29;;;;;;;18.53;11.33;;;;;;;7.59;100.00;98556.94;5115438;28;20278;-81
2023/04/18 06:20:55;;;;;;;16.97;12.13;;;;;;;7.62;100.00;98559.41;5113267;28;20232;-80
2023/04/18 06:23:22;;;;;;;18.00;12.53;;;;;;;7.62;100.00;98559.41;5100117;28;20226;-77
2023/04/18 06:25:48;;;;;;;15.17;11.80;;;;;;;7.61;100.00;98569.09;5091061;28;20227;-77
2023/04/18 06:28:15;;;;;;;19.00;12.27;;;;;;;7.63;100.00;98566.34;5091255;28;20605;-79
2023/04/18 06:30:41;;;;;;;17.23;11.90;;;;;;;7.65;100.00;98575.03;5090744;28;20300;-78
2023/04/18 06:33:09;;;;;;;19.10;12.40;;;;;;;7.62;100.00;98575.19;5091360;28;20276;-81
2023/04/18 06:35:37;;;;;;;16.13;11.57;;;;;;;7.63;100.00;98564.59;5090830;28;20206;-79
2023/04/18 06:38:03;;;;;;;16.97;12.33;;;;;;;7.72;100.00;98574.63;5091216;28;20206;-78
2023/04/18 06:40:29;;;;;;;18.17;11.83;;;;;;;7.76;100.00;98565.66;5090555;28;20588;-76
2023/04/18 06:42:56;;;;;;;14.60;11.83;;;;;;;7.81;100.00;98570.69;5091042;28;20245;-78
2023/04/18 06:45:23;;;;;;;16.77;11.73;;;;;;;7.83;100.00;98574.09;5091036;28;20330;-78
2023/04/18 06:47:50;;;;;;;17.17;11.57;;;;;;;7.95;100.00;98568.22;5089814;28;20234;-79
2023/04/18 06:50:18;;;;;;;16.30;12.03;;;;;;;7.97;100.00;98569.81;5088044;28;20245;-81
2023/04/18 06:52:44;;;;;;;16.97;11.97;;;;;;;8.06;100.00;98564.06;5090621;28;20207;-80
2023/04/18 06:55:12;;;;;;;15.67;12.03;;;;;;;8.13;100.00;98573.34;5093274;28;20210;-80
2023/04/18 06:57:38;;;;;;;16.20;11.87;;;;;;;8.13;100.00;98572.47;5093296;28;20280;-78
2023/04/18 07:00:06;;;;;;;17.27;11.10;;;;;;;8.12;100.00;98573.41;5093471;28;20218;-78
2023/04/18 07:02:34;;;;;;;15.80;11.27;;;;;;;8.21;100.00;98570.34;5094142;28;20226;-78
2023/04/18 07:05:01;;;;;;;15.83;11.30;;;;;;;8.22;100.00;98574.69;5092637;28;20340;-79
2023/04/18 07:07:29;;;;;;;15.27;11.82;;;;;;;8.23;100.00;98571.13;5093780;28;20407;-84
2023/04/18 07:09:55;;;;;;;17.90;12.63;;;;;;;8.25;100.00;98578.00;5094422;28;20238;-79
2023/04/18 07:12:22;;;;;;;16.50;11.87;;;;;;;8.29;100.00;98573.41;5095199;28;20219;-79
2023/04/18 07:14:48;;;;;;;14.63;10.77;;;;;;;8.36;100.00;98580.94;5094836;28;20207;-78
2023/04/18 07:17:16;;;;;;;15.97;11.27;;;;;;;8.42;100.00;98577.09;5095222;28;20228;-81
2023/04/18 07:19:43;;;;;;;16.43;11.23;;;;;;;8.46;100.00;98581.28;5094146;28;20210;-81
2023/04/18 07:22:09;;;;;;;16.00;11.37;;;;;;;8.47;100.00;98582.97;5094951;28;20704;-81
2023/04/18 07:24:38;;;;;;;17.27;11.63;;;;;;;8.53;100.00;98582.66;5094865;28;20207;-80
2023/04/18 07:27:04;;;;;;;16.20;12.03;;;;;;;8.62;100.00;98582.16;5094538;28;20232;-79
2023/04/18 07:29:31;;;;;;;15.20;10.77;;;;;;;8.68;100.00;98576.53;5093903;28;20226;-78
2023/04/18 07:31:58;;;;;;;16.27;11.77;;;;;;;8.69;100.00;98587.00;5094528;28;20576;-79
2023/04/18 07:34:25;;;;;;;14.73;10.67;;;;;;;8.77;100.00;98581.31;5094770;28;20251;-79
2023/04/18 07:36:52;;;;;;;14.63;10.97;;;;;;;8.87;100.00;98577.25;5094578;28;20232;-80
2023/04/18 07:39:18;;;;;;;17.10;11.37;;;;;;;8.93;100.00;98582.19;5094098;28;20222;-80
2023/04/18 07:41:46;;;;;;;15.17;11.33;;;;;;;8.86;100.00;98586.94;5094273;28;20696;-79
2023/04/18 07:44:13;;;;;;;13.60;10.80;;;;;;;8.88;100.00;98584.22;5094646;28;20216;-79
2023/04/18 07:46:39;;;;;;;16.20;11.57;;;;;;;8.94;100.00;98594.44;5094762;28;20242;-80
2023/04/18 07:49:06;;;;;;;15.03;11.07;;;;;;;8.94;100.00;98602.34;5097408;28;20212;-79
2023/04/18 07:51:33;;;;;;;15.33;11.53;;;;;;;8.97;100.00;98592.47;5098102;28;20290;-78
2023/04/18 07:54:00;;;;;;;15.87;11.37;;;;;;;8.99;100.00;98590.59;5098298;28;20310;-80
2023/04/18 07:56:27;;;;;;;15.93;11.63;;;;;;;9.08;100.00;98589.22;5096616;28;20221;-79
2023/04/18 07:58:55;;;;;;;14.93;11.57;;;;;;;9.20;100.00;98583.25;5096549;28;20217;-80
2023/04/18 08:01:23;;;;;;;15.90;10.87;;;;;;;9.26;100.00;98585.56;5096802;28;20214;-80
2023/04/18 08:03:50;;;;;;;19.20;12.37;;;;;;;9.35;100.00;98585.00;5094657;28;20713;-81
2023/04/18 08:06:17;;;;;;;13.80;10.63;;;;;;;9.46;100.00;98585.25;5092680;28;20231;-81
2023/04/18 08:08:43;;;;;;;13.23;10.13;;;;;;;9.53;100.00;98578.69;5094054;28;20583;-80
2023/04/18 08:11:10;;;;;;;14.23;10.47;;;;;;;9.67;98.85;98582.22;5092963;28;20219;-80
2023/04/18 08:13:36;;;;;;;14.63;11.17;;;;;;;9.79;97.11;98580.69;5093706;28;20204;-80
2023/04/18 08:16:04;;;;;;;17.13;11.90;;;;;;;9.82;97.87;98581.34;5093737;28;20235;-79
2023/04/18 08:18:31;;;;;;;17.30;11.83;;;;;;;9.95;99.53;98581.44;5093974;28;20776;-81
2023/04/18 08:20:57;;;;;;;16.93;11.33;;;;;;;9.97;96.38;98566.38;5093197;28;20213;-81
2023/04/18 08:23:24;;;;;;;16.33;11.50;;;;;;;10.12;94.99;98576.03;5093773;28;20259;-80
2023/04/18 08:28:29;;;;;;;18.93;11.83;;;;;;;10.09;94.97;98578.88;5072141;28;20253;-77
2023/04/18 08:30:56;;;;;;;20.70;11.67;;;;;;;10.16;95.13;98569.66;5072520;28;20215;-78
2023/04/18 08:33:24;;;;;;;14.70;11.13;;;;;;;10.23;94.16;98576.25;5074345;28;20357;-77
2023/04/18 08:35:50;;;;;;;15.43;11.47;;;;;;;10.24;91.74;98584.09;5073682;28;20207;-77
2023/04/18 08:38:18;;;;;;;13.63;10.97;;;;;;;10.25;92.39;98582.28;5053489;28;20211;-77
2023/04/18 08:40:45;;;;;;;17.27;11.70;;;;;;;10.49;95.93;98594.00;5053138;28;20204;-77
2023/04/18 08:43:13;;;;;;;18.20;11.93;;;;;;;10.67;95.35;98592.84;5053661;28;20239;-77
2023/04/18 08:45:40;;;;;;;14.10;11.37;;;;;;;10.79;94.37;98587.66;5053966;28;20240;-77
2023/04/18 08:48:07;;;;;;;17.23;12.23;;;;;;;10.99;92.62;98584.59;5053661;28;20712;-77
2023/04/18 08:50:35;;;;;;;17.03;11.20;;;;;;;11.01;92.91;98589.81;5052318;28;20267;-77
2023/04/18 08:53:01;;;;;;;16.23;11.50;;;;;;;11.13;93.83;98597.78;5055440;28;20204;-77
2023/04/18 08:55:28;;;;;;;16.03;12.10;;;;;;;11.28;93.82;98593.31;5054285;28;20245;-77
2023/04/18 08:57:58;;;;;;;15.37;10.87;;;;;;;11.49;94.10;98599.88;5054917;28;20235;-77
2023/04/18 09:00:26;;;;;;;14.70;11.90;;;;;;;11.57;91.36;98579.84;5053516;28;20216;-77
2023/04/18 09:02:55;;;;;;;13.83;10.90;;;;;;;11.74;91.26;98592.03;5053167;28;20240;-77
2023/04/18 09:05:22;;;;;;;14.63;11.73;;;;;;;11.70;90.56;98594.03;5053262;28;20211;-77
2023/04/18 09:07:52;;;;;;;13.87;10.80;;;;;;;11.62;88.69;98585.75;5053212;28;20250;-77
2023/04/18 09:10:28;;;;;;;15.90;11.87;;;;;;;11.45;89.37;98590.41;5053516;28;20215;-77
2023/04/18 09:12:56;;;;;;;14.40;11.50;;;;;;;11.31;91.16;98593.13;5054415;28;20215;-77
2023/04/18 09:15:25;;;;;;;18.07;11.47;;;;;;;11.28;92.13;98601.25;5065084;28;20236;-77
2023/04/18 09:17:54;;;;;;;15.73;11.07;;;;;;;11.13;92.18;98602.25;5052931;28;20308;-77
2023/04/18 09:20:36;;;;;;;15.17;11.03;;;;;;;11.16;91.92;98602.91;5062035;28;20579;-77
2023/04/18 09:23:09;;;;;;;16.87;11.73;;;;;;;11.07;90.66;98597.34;5055765;28;20335;-77
2023/04/18 09:25:37;;;;;;;16.30;11.70;;;;;;;11.13;90.04;98599.59;5053522;28;20238;-77
2023/04/18 09:28:05;;;;;;;14.67;11.60;;;;;;;11.08;92.39;98601.69;5052591;28;20761;-77
2023/04/18 09:30:35;;;;;;;17.83;11.67;;;;;;;11.10;93.69;98607.72;5051986;28;20243;-77
2023/04/18 09:33:03;;;;;;;15.17;11.53;;;;;;;11.15;94.36;98610.94;5052786;28;20263;-77
2023/04/18 09:35:30;;;;;;;18.43;12.53;;;;;;;11.26;95.24;98609.28;5052600;28;20214;-77
2023/04/18 09:37:56;;;;;;;15.60;12.13;;;;;;;11.31;95.21;98606.34;5052695;28;20269;-77
2023/04/18 09:40:24;;;;;;;14.90;11.73;;;;;;;11.36;94.87;98614.81;5052097;28;20208;-77
2023/04/18 09:42:53;;;;;;;14.03;10.87;;;;;;;11.53;93.29;98611.94;5054173;28;20231;-77
2023/04/18 09:45:20;;;;;;;13.13;10.57;;;;;;;11.77;91.48;98600.63;5053683;28;20302;-77
2023/04/18 09:47:46;;;;;;;14.40;11.17;;;;;;;11.93;88.62;98595.97;5052741;28;20244;-77
2023/04/18 09:50:15;;;;;;;13.93;10.73;;;;;;;12.06;86.58;98585.41;5052060;28;20228;-77
2023/04/18 09:52:43;;;;;;;12.83;10.20;;;;;;;12.16;85.40;98581.19;5052957;28;20205;-77
2023/04/18 09:55:11;;;;;;;13.17;9.87;;;;;;;12.24;85.30;98579.69;5053100;28;20221;-78
2023/04/18 09:57:41;;;;;;;13.10;11.17;;;;;;;12.47;86.99;98586.09;5052281;28;20228;-77
2023/04/18 10:00:12;;;;;;;12.83;10.37;;;;;;;12.68;87.91;98590.72;5051361;28;20214;-77
2023/04/18 10:02:50;;;;;;;11.03;9.40;;;;;;;12.91;83.49;98570.53;5051810;28;20224;-77
2023/04/18 10:05:17;;;;;;;12.10;9.90;;;;;;;12.96;82.89;98571.09;5051737;28;20294;-78
2023/04/18 10:07:44;;;;;;;11.77;9.10;;;;;;;12.96;82.57;98573.75;5051580;28;20226;-77
2023/04/18 10:10:13;;;;;;;13.40;9.80;;;;;;;12.86;81.30;98564.69;5052086;28;20219;-77
2023/04/18 10:12:41;;;;;;;12.13;9.43;;;;;;;12.81;80.58;98570.34;5056826;28;20685;-77
2023/04/18 10:15:10;;;;;;;11.07;9.33;;;;;;;12.75;80.26;98565.47;5055060;28;20215;-77
2023/04/18 10:17:42;;;;;;;11.87;9.20;;;;;;;12.80;81.78;98573.09;5071580;28;20224;-76
2023/04/18 10:20:16;;;;;;;11.53;9.10;;;;;;;12.80;80.65;98562.47;5070452;28;20214;-77
2023/04/18 10:22:42;;;;;;;9.80;8.77;;;;;;;12.81;81.46;98564.16;5072765;28;20330;-78
2023/04/18 10:25:09;;;;;;;14.80;9.40;;;;;;;12.82;80.60;98565.84;5073018;28;20206;-77
2023/04/18 10:27:56;;;;;;;13.50;8.90;;;;;;;12.85;80.05;98560.34;5065872;28;20243;-77
2023/04/18 10:31:01;;;;;;;9.63;8.33;;;;;;;12.90;80.28;98563.53;5074664;28;20210;-77
2023/04/18 10:33:34;;;;;;;10.87;8.73;;;;;;;12.86;79.78;98564.69;5071020;28;20210;-79
2023/04/18 10:36:14;;;;;;;10.53;8.60;;;;;;;12.87;81.25;98569.03;5075423;28;20199;-77
2023/04/18 10:38:45;;;;;;;11.90;9.03;;;;;;;12.98;83.84;98577.97;5075974;28;20204;-77
2023/04/18 10:41:21;;;;;;;11.07;9.30;;;;;;;13.07;83.51;98571.16;5075005;28;20222;-76
2023/04/18 10:44:22;;;;;;;10.63;9.27;;;;;;;13.20;83.13;98571.97;5068531;28;20229;-78
2023/04/18 10:47:20;;;;;;;11.37;9.00;;;;;;;13.28;82.01;98564.28;5050384;28;20728;-78
2023/04/18 10:49:54;;;;;;;12.13;9.23;;;;;;;13.29;80.62;98558.88;5049521;28;20260;-78
2023/04/18 10:52:21;;;;;;;10.40;8.87;;;;;;;13.37;80.61;98566.25;5050745;28;20215;-78
2023/04/18 10:54:53;;;;;;;11.23;8.53;;;;;;;13.38;79.22;98554.69;5050380;28;20203;-77
2023/04/18 10:57:19;;;;;;;10.53;8.70;;;;;;;13.40;81.53;98558.06;5050292;28;20246;-77
2023/04/18 10:59:49;;;;;;;10.03;8.40;;;;;;;13.39;81.31;98556.38;5049656;28;20211;-78
2023/04/18 11:02:24;;;;;;;10.47;8.67;;;;;;;13.53;79.14;98548.22;5050118;28;20215;-78
2023/04/18 11:04:52;;;;;;;11.10;9.27;;;;;;;13.66;80.09;98543.69;5050724;28;20227;-78
2023/04/18 11:07:18;;;;;;;10.33;8.00;;;;;;;13.87;78.34;98531.47;5050390;28;20228;-77
2023/04/18 11:09:52;;;;;;;9.73;8.13;;;;;;;13.94;78.40;98532.69;5049871;28;20326;-77
2023/04/18 11:12:19;;;;;;;10.37;7.87;;;;;;;13.98;78.96;98540.31;5050579;28;20550;-77
2023/04/18 11:14:48;;;;;;;10.53;8.13;;;;;;;13.97;77.40;98521.81;5050055;28;20216;-79
2023/04/18 11:17:23;;;;;;;9.30;7.40;;;;;;;14.01;77.10;98517.97;5050925;28;20224;-78
2023/04/18 11:19:50;;;;;;;10.17;7.63;;;;;;;14.06;77.01;98526.44;5052958;28;20221;-77
2023/04/18 11:22:17;;;;;;;13.33;8.17;;;;;;;13.91;76.83;98524.94;5054216;28;20247;-77
2023/04/18 11:24:44;;;;;;;8.53;7.37;;;;;;;13.71;77.50;98520.28;5053731;28;20247;-78